sensor_id;sensor_type;location;lat;lon;timestamp;P1;durP1;ratioP1;P2;durP2;ratioP2
37715;SDS011;23562;50.540;12.504;2023-06-19T11:18:04;11.77;;;10.23;;
37715;SDS011;23562;50.540;12.504;2023-06-19T11:20:29;13.30;;;10.27;;
37715;SDS011;23562;50.540;12.504;2023-06-19T11:22:59;14.77;;;9.77;;
37715;SDS011;23562;50.540;12.504;2023-06-19T11:25:33;10.95;;;9.82;;
37715;SDS011;23562;50.540;12.504;2023-06-19T11:27:59;11.27;;;10.07;;
37715;SDS011;23562;50.540;12.504;2023-06-19T11:30:29;10.82;;;9.27;;
37715;SDS011;23562;50.540;12.504;2023-06-19T11:32:55;12.70;;;9.88;;
37715;SDS011;23562;50.540;12.504;2023-06-19T11:35:20;11.65;;;10.07;;
37715;SDS011;23562;50.540;12.504;2023-06-19T11:37:46;9.93;;;8.95;;
37715;SDS011;23562;50.540;12.504;2023-06-19T11:40:13;13.98;;;9.27;;
37715;SDS011;23562;50.540;12.504;2023-06-19T11:42:44;14.98;;;9.82;;
37715;SDS011;23562;50.540;12.504;2023-06-19T11:45:09;9.55;;;8.63;;
37715;SDS011;23562;50.540;12.504;2023-06-19T11:47:34;10.90;;;9.80;;
37715;SDS011;23562;50.540;12.504;2023-06-19T11:50:03;12.10;;;9.27;;
37715;SDS011;23562;50.540;12.504;2023-06-19T11:52:28;9.73;;;8.73;;
37715;SDS011;23562;50.540;12.504;2023-06-19T11:54:53;11.50;;;9.63;;
37715;SDS011;23562;50.540;12.504;2023-06-19T11:57:18;11.05;;;8.95;;
37715;SDS011;23562;50.540;12.504;2023-06-19T11:59:43;9.15;;;8.18;;
37715;SDS011;23562;50.540;12.504;2023-06-19T12:02:09;10.93;;;8.73;;
37715;SDS011;23562;50.540;12.504;2023-06-19T12:04:34;10.07;;;8.97;;
37715;SDS011;23562;50.540;12.504;2023-06-19T12:06:59;9.82;;;8.82;;
37715;SDS011;23562;50.540;12.504;2023-06-19T12:09:24;12.87;;;9.30;;
37715;SDS011;23562;50.540;12.504;2023-06-19T12:11:50;10.23;;;9.18;;
37715;SDS011;23562;50.540;12.504;2023-06-19T12:14:15;10.30;;;9.30;;
37715;SDS011;23562;50.540;12.504;2023-06-19T12:16:40;10.33;;;8.30;;
37715;SDS011;23562;50.540;12.504;2023-06-19T12:19:05;11.57;;;9.05;;
37715;SDS011;23562;50.540;12.504;2023-06-19T12:21:30;9.57;;;8.50;;
37715;SDS011;23562;50.540;12.504;2023-06-19T12:23:55;10.63;;;8.90;;
37715;SDS011;23562;50.540;12.504;2023-06-19T12:26:21;10.85;;;8.57;;
37715;SDS011;23562;50.540;12.504;2023-06-19T12:28:46;9.60;;;8.43;;
37715;SDS011;23562;50.540;12.504;2023-06-19T12:31:11;10.17;;;9.17;;
37715;SDS011;23562;50.540;12.504;2023-06-19T12:33:36;10.20;;;8.57;;
37715;SDS011;23562;50.540;12.504;2023-06-19T12:36:04;11.13;;;8.85;;
37715;SDS011;23562;50.540;12.504;2023-06-19T12:38:30;13.07;;;8.45;;
37715;SDS011;23562;50.540;12.504;2023-06-19T12:40:56;9.65;;;8.65;;
37715;SDS011;23562;50.540;12.504;2023-06-19T12:43:21;10.67;;;8.43;;
37715;SDS011;23562;50.540;12.504;2023-06-19T12:45:46;13.20;;;8.43;;
37715;SDS011;23562;50.540;12.504;2023-06-19T12:48:11;10.87;;;8.70;;
37715;SDS011;23562;50.540;12.504;2023-06-19T12:50:36;9.43;;;7.93;;
37715;SDS011;23562;50.540;12.504;2023-06-19T12:53:01;8.95;;;7.75;;
37715;SDS011;23562;50.540;12.504;2023-06-19T12:55:27;7.45;;;6.75;;
37715;SDS011;23562;50.540;12.504;2023-06-19T12:57:52;7.80;;;6.88;;
37715;SDS011;23562;50.540;12.504;2023-06-19T13:00:17;7.25;;;6.53;;
37715;SDS011;23562;50.540;12.504;2023-06-19T13:02:42;7.63;;;6.80;;
37715;SDS011;23562;50.540;12.504;2023-06-19T13:05:08;7.25;;;6.55;;
37715;SDS011;23562;50.540;12.504;2023-06-19T13:07:33;8.77;;;6.90;;
37715;SDS011;23562;50.540;12.504;2023-06-19T13:09:58;9.35;;;7.35;;
37715;SDS011;23562;50.540;12.504;2023-06-19T13:12:23;9.17;;;6.93;;
37715;SDS011;23562;50.540;12.504;2023-06-19T13:14:48;11.23;;;6.50;;
37715;SDS011;23562;50.540;12.504;2023-06-19T13:17:14;10.07;;;7.10;;
37715;SDS011;23562;50.540;12.504;2023-06-19T13:19:39;7.95;;;7.10;;
37715;SDS011;23562;50.540;12.504;2023-06-19T13:22:04;7.30;;;6.57;;
37715;SDS011;23562;50.540;12.504;2023-06-19T13:24:29;8.20;;;6.45;;
37715;SDS011;23562;50.540;12.504;2023-06-19T13:26:54;7.75;;;6.22;;
37715;SDS011;23562;50.540;12.504;2023-06-19T13:29:20;6.95;;;5.95;;
37715;SDS011;23562;50.540;12.504;2023-06-19T13:31:45;5.70;;;5.10;;
37715;SDS011;23562;50.540;12.504;2023-06-19T13:34:11;7.53;;;4.50;;
37715;SDS011;23562;50.540;12.504;2023-06-19T13:36:36;4.93;;;4.32;;
37715;SDS011;23562;50.540;12.504;2023-06-19T13:39:01;4.75;;;4.32;;
37715;SDS011;23562;50.540;12.504;2023-06-19T13:41:27;4.70;;;4.30;;
37715;SDS011;23562;50.540;12.504;2023-06-19T13:43:55;4.70;;;4.25;;
37715;SDS011;23562;50.540;12.504;2023-06-19T13:46:21;6.47;;;4.30;;
37715;SDS011;23562;50.540;12.504;2023-06-19T13:48:49;6.05;;;4.47;;
37715;SDS011;23562;50.540;12.504;2023-06-19T13:51:17;6.72;;;4.30;;
37715;SDS011;23562;50.540;12.504;2023-06-19T13:53:42;5.97;;;4.35;;
37715;SDS011;23562;50.540;12.504;2023-06-19T13:56:07;5.43;;;4.17;;
37715;SDS011;23562;50.540;12.504;2023-06-19T13:58:32;5.57;;;4.97;;
37715;SDS011;23562;50.540;12.504;2023-06-19T14:00:57;7.03;;;4.60;;
37715;SDS011;23562;50.540;12.504;2023-06-19T14:03:22;9.18;;;5.25;;
37715;SDS011;23562;50.540;12.504;2023-06-19T14:05:49;6.00;;;4.88;;
37715;SDS011;23562;50.540;12.504;2023-06-19T14:08:14;6.10;;;5.07;;
37715;SDS011;23562;50.540;12.504;2023-06-19T14:10:39;5.95;;;5.40;;
37715;SDS011;23562;50.540;12.504;2023-06-19T14:13:04;7.87;;;4.97;;
37715;SDS011;23562;50.540;12.504;2023-06-19T14:15:29;5.88;;;5.18;;
37715;SDS011;23562;50.540;12.504;2023-06-19T14:17:55;5.40;;;4.55;;
37715;SDS011;23562;50.540;12.504;2023-06-19T14:20:20;5.20;;;4.70;;
37715;SDS011;23562;50.540;12.504;2023-06-19T14:22:45;12.85;;;5.32;;
37715;SDS011;23562;50.540;12.504;2023-06-19T14:25:10;7.05;;;5.25;;
37715;SDS011;23562;50.540;12.504;2023-06-19T14:27:35;5.15;;;4.65;;
37715;SDS011;23562;50.540;12.504;2023-06-19T14:30:00;7.20;;;5.43;;
37715;SDS011;23562;50.540;12.504;2023-06-19T14:32:28;5.75;;;5.15;;
37715;SDS011;23562;50.540;12.504;2023-06-19T14:34:53;5.55;;;5.03;;
37715;SDS011;23562;50.540;12.504;2023-06-19T14:37:18;5.93;;;5.10;;
37715;SDS011;23562;50.540;12.504;2023-06-19T14:39:44;5.80;;;5.25;;
37715;SDS011;23562;50.540;12.504;2023-06-19T14:42:09;6.20;;;5.40;;
37715;SDS011;23562;50.540;12.504;2023-06-19T14:44:35;5.50;;;5.00;;
37715;SDS011;23562;50.540;12.504;2023-06-19T14:47:00;5.93;;;5.32;;
37715;SDS011;23562;50.540;12.504;2023-06-19T14:49:25;5.57;;;5.07;;
37715;SDS011;23562;50.540;12.504;2023-06-19T14:51:50;5.93;;;5.30;;
37715;SDS011;23562;50.540;12.504;2023-06-19T14:54:15;5.82;;;5.05;;
37715;SDS011;23562;50.540;12.504;2023-06-19T14:56:42;5.68;;;5.18;;
37715;SDS011;23562;50.540;12.504;2023-06-19T14:59:09;6.75;;;5.45;;
37715;SDS011;23562;50.540;12.504;2023-06-19T15:01:34;8.23;;;5.68;;
37715;SDS011;23562;50.540;12.504;2023-06-19T15:03:59;6.45;;;5.65;;
37715;SDS011;23562;50.540;12.504;2023-06-19T15:06:24;6.13;;;5.25;;
37715;SDS011;23562;50.540;12.504;2023-06-19T15:08:50;6.25;;;5.22;;
37715;SDS011;23562;50.540;12.504;2023-06-19T15:11:15;6.90;;;5.80;;
37715;SDS011;23562;50.540;12.504;2023-06-19T15:13:40;6.30;;;5.70;;
37715;SDS011;23562;50.540;12.504;2023-06-19T15:16:05;6.65;;;6.10;;
37715;SDS011;23562;50.540;12.504;2023-06-19T15:18:32;5.60;;;5.10;;
37715;SDS011;23562;50.540;12.504;2023-06-19T15:20:58;6.60;;;5.77;;
37715;SDS011;23562;50.540;12.504;2023-06-19T15:23:23;6.60;;;6.00;;
37715;SDS011;23562;50.540;12.504;2023-06-19T15:25:48;6.20;;;5.60;;
37715;SDS011;23562;50.540;12.504;2023-06-19T15:28:14;6.63;;;5.63;;
37715;SDS011;23562;50.540;12.504;2023-06-19T15:30:39;5.43;;;4.93;;
37715;SDS011;23562;50.540;12.504;2023-06-19T15:33:04;5.73;;;5.13;;
37715;SDS011;23562;50.540;12.504;2023-06-19T15:35:29;6.17;;;5.57;;
37715;SDS011;23562;50.540;12.504;2023-06-19T15:37:54;7.15;;;5.72;;
37715;SDS011;23562;50.540;12.504;2023-06-19T15:40:23;6.40;;;5.80;;
37715;SDS011;23562;50.540;12.504;2023-06-19T15:42:48;6.77;;;5.90;;
37715;SDS011;23562;50.540;12.504;2023-06-19T15:45:13;7.38;;;6.68;;
37715;SDS011;23562;50.540;12.504;2023-06-19T15:47:39;6.72;;;6.13;;
37715;SDS011;23562;50.540;12.504;2023-06-19T15:50:04;6.90;;;6.30;;
37715;SDS011;23562;50.540;12.504;2023-06-19T15:52:29;8.27;;;6.85;;
37715;SDS011;23562;50.540;12.504;2023-06-19T15:54:55;7.45;;;6.18;;
37715;SDS011;23562;50.540;12.504;2023-06-19T15:57:20;6.87;;;6.17;;
37715;SDS011;23562;50.540;12.504;2023-06-19T15:59:45;8.07;;;6.27;;
37715;SDS011;23562;50.540;12.504;2023-06-19T16:02:15;8.50;;;6.27;;
37715;SDS011;23562;50.540;12.504;2023-06-19T16:04:40;9.02;;;6.90;;
37715;SDS011;23562;50.540;12.504;2023-06-19T16:07:05;7.88;;;5.88;;
37715;SDS011;23562;50.540;12.504;2023-06-19T16:09:30;7.38;;;6.40;;
37715;SDS011;23562;50.540;12.504;2023-06-19T16:11:55;11.50;;;6.50;;
37715;SDS011;23562;50.540;12.504;2023-06-19T16:14:20;6.63;;;6.00;;
37715;SDS011;23562;50.540;12.504;2023-06-19T16:16:46;7.30;;;6.60;;
37715;SDS011;23562;50.540;12.504;2023-06-19T16:19:11;8.10;;;6.03;;
37715;SDS011;23562;50.540;12.504;2023-06-19T16:21:36;6.70;;;6.00;;
37715;SDS011;23562;50.540;12.504;2023-06-19T16:24:01;7.83;;;6.43;;
37715;SDS011;23562;50.540;12.504;2023-06-19T16:26:26;7.85;;;6.60;;
37715;SDS011;23562;50.540;12.504;2023-06-19T16:28:51;7.45;;;6.68;;
37715;SDS011;23562;50.540;12.504;2023-06-19T16:31:17;6.80;;;6.10;;
37715;SDS011;23562;50.540;12.504;2023-06-19T16:33:42;8.60;;;6.72;;
37715;SDS011;23562;50.540;12.504;2023-06-19T16:36:07;7.18;;;6.47;;
37715;SDS011;23562;50.540;12.504;2023-06-19T16:38:32;12.60;;;7.37;;
37715;SDS011;23562;50.540;12.504;2023-06-19T16:40:57;7.55;;;6.90;;
37715;SDS011;23562;50.540;12.504;2023-06-19T16:43:22;7.53;;;6.65;;
37715;SDS011;23562;50.540;12.504;2023-06-19T16:45:48;7.22;;;6.60;;
37715;SDS011;23562;50.540;12.504;2023-06-19T16:48:13;8.02;;;7.22;;
37715;SDS011;23562;50.540;12.504;2023-06-19T16:50:38;7.57;;;6.87;;
37715;SDS011;23562;50.540;12.504;2023-06-19T16:53:05;6.80;;;6.20;;
37715;SDS011;23562;50.540;12.504;2023-06-19T16:55:30;9.75;;;6.22;;
37715;SDS011;23562;50.540;12.504;2023-06-19T16:57:56;7.22;;;6.47;;
37715;SDS011;23562;50.540;12.504;2023-06-19T17:00:21;7.10;;;6.40;;
37715;SDS011;23562;50.540;12.504;2023-06-19T17:02:46;7.40;;;6.70;;
37715;SDS011;23562;50.540;12.504;2023-06-19T17:05:13;7.25;;;6.55;;
37715;SDS011;23562;50.540;12.504;2023-06-19T17:07:38;8.83;;;6.60;;
37715;SDS011;23562;50.540;12.504;2023-06-19T17:10:04;7.50;;;6.18;;
37715;SDS011;23562;50.540;12.504;2023-06-19T17:12:29;9.60;;;5.88;;
37715;SDS011;23562;50.540;12.504;2023-06-19T17:14:55;6.80;;;5.90;;
37715;SDS011;23562;50.540;12.504;2023-06-19T17:17:22;7.65;;;6.43;;
37715;SDS011;23562;50.540;12.504;2023-06-19T17:19:47;8.48;;;5.93;;
37715;SDS011;23562;50.540;12.504;2023-06-19T17:22:13;8.23;;;6.00;;
37715;SDS011;23562;50.540;12.504;2023-06-19T17:24:38;5.60;;;5.10;;
37715;SDS011;23562;50.540;12.504;2023-06-19T17:27:04;6.43;;;5.82;;
37715;SDS011;23562;50.540;12.504;2023-06-19T17:29:30;7.43;;;5.63;;
37715;SDS011;23562;50.540;12.504;2023-06-19T17:31:55;6.40;;;5.73;;
37715;SDS011;23562;50.540;12.504;2023-06-19T17:34:21;7.00;;;5.38;;
37715;SDS011;23562;50.540;12.504;2023-06-19T17:36:46;6.37;;;5.50;;
37715;SDS011;23562;50.540;12.504;2023-06-19T17:39:12;6.82;;;5.40;;
37715;SDS011;23562;50.540;12.504;2023-06-19T17:41:37;6.82;;;5.40;;
37715;SDS011;23562;50.540;12.504;2023-06-19T17:44:03;5.57;;;5.07;;
37715;SDS011;23562;50.540;12.504;2023-06-19T17:46:28;5.93;;;5.35;;
37715;SDS011;23562;50.540;12.504;2023-06-19T17:48:53;5.90;;;5.30;;
37715;SDS011;23562;50.540;12.504;2023-06-19T17:51:19;6.97;;;5.70;;
37715;SDS011;23562;50.540;12.504;2023-06-19T17:53:44;6.05;;;5.25;;
37715;SDS011;23562;50.540;12.504;2023-06-19T17:56:09;7.43;;;5.60;;
37715;SDS011;23562;50.540;12.504;2023-06-19T17:58:34;6.43;;;5.75;;
37715;SDS011;23562;50.540;12.504;2023-06-19T18:01:00;6.07;;;5.47;;
37715;SDS011;23562;50.540;12.504;2023-06-19T18:03:25;7.57;;;6.00;;
37715;SDS011;23562;50.540;12.504;2023-06-19T18:05:50;6.13;;;5.53;;
37715;SDS011;23562;50.540;12.504;2023-06-19T18:08:15;7.00;;;6.27;;
37715;SDS011;23562;50.540;12.504;2023-06-19T18:10:40;7.45;;;6.68;;
37715;SDS011;23562;50.540;12.504;2023-06-19T18:13:05;7.88;;;5.78;;
37715;SDS011;23562;50.540;12.504;2023-06-19T18:15:31;7.70;;;6.20;;
37715;SDS011;23562;50.540;12.504;2023-06-19T18:17:56;7.73;;;5.80;;
37715;SDS011;23562;50.540;12.504;2023-06-19T18:20:21;7.20;;;6.50;;
37715;SDS011;23562;50.540;12.504;2023-06-19T18:22:46;7.85;;;6.22;;
37715;SDS011;23562;50.540;12.504;2023-06-19T18:25:11;6.05;;;5.50;;
37715;SDS011;23562;50.540;12.504;2023-06-19T18:27:36;6.93;;;6.15;;
37715;SDS011;23562;50.540;12.504;2023-06-19T18:30:03;6.53;;;5.80;;
37715;SDS011;23562;50.540;12.504;2023-06-19T18:32:29;6.10;;;5.60;;
37715;SDS011;23562;50.540;12.504;2023-06-19T18:34:54;6.90;;;5.88;;
37715;SDS011;23562;50.540;12.504;2023-06-19T18:37:19;7.05;;;5.78;;
37715;SDS011;23562;50.540;12.504;2023-06-19T18:39:44;6.75;;;6.07;;
37715;SDS011;23562;50.540;12.504;2023-06-19T18:42:10;7.55;;;6.18;;
37715;SDS011;23562;50.540;12.504;2023-06-19T18:44:35;9.13;;;6.05;;
37715;SDS011;23562;50.540;12.504;2023-06-19T18:47:00;7.35;;;6.20;;
37715;SDS011;23562;50.540;12.504;2023-06-19T18:49:25;9.30;;;6.27;;
37715;SDS011;23562;50.540;12.504;2023-06-19T18:51:50;6.70;;;6.10;;
37715;SDS011;23562;50.540;12.504;2023-06-19T18:54:15;7.13;;;6.32;;
37715;SDS011;23562;50.540;12.504;2023-06-19T18:56:40;7.38;;;6.57;;
37715;SDS011;23562;50.540;12.504;2023-06-19T18:59:06;7.37;;;6.67;;
37715;SDS011;23562;50.540;12.504;2023-06-19T19:01:31;7.90;;;7.20;;
37715;SDS011;23562;50.540;12.504;2023-06-19T19:03:56;10.80;;;7.43;;
37715;SDS011;23562;50.540;12.504;2023-06-19T19:06:21;9.23;;;7.00;;
37715;SDS011;23562;50.540;12.504;2023-06-19T19:08:46;10.23;;;6.97;;
37715;SDS011;23562;50.540;12.504;2023-06-19T19:11:11;9.20;;;8.27;;
37715;SDS011;23562;50.540;12.504;2023-06-19T19:13:36;14.38;;;9.32;;
37715;SDS011;23562;50.540;12.504;2023-06-19T19:16:02;10.53;;;8.40;;
37715;SDS011;23562;50.540;12.504;2023-06-19T19:18:27;11.77;;;10.00;;
37715;SDS011;23562;50.540;12.504;2023-06-19T19:20:52;13.07;;;10.50;;
37715;SDS011;23562;50.540;12.504;2023-06-19T19:23:17;12.48;;;10.20;;
37715;SDS011;23562;50.540;12.504;2023-06-19T19:25:42;10.02;;;8.75;;
37715;SDS011;23562;50.540;12.504;2023-06-19T19:28:08;9.57;;;8.43;;
37715;SDS011;23562;50.540;12.504;2023-06-19T19:30:38;9.50;;;7.55;;
37715;SDS011;23562;50.540;12.504;2023-06-19T19:33:03;9.80;;;7.63;;
37715;SDS011;23562;50.540;12.504;2023-06-19T19:35:29;8.57;;;7.60;;
37715;SDS011;23562;50.540;12.504;2023-06-19T19:37:54;8.35;;;7.30;;
37715;SDS011;23562;50.540;12.504;2023-06-19T19:40:19;9.38;;;7.18;;
37715;SDS011;23562;50.540;12.504;2023-06-19T19:42:44;8.53;;;7.20;;
37715;SDS011;23562;50.540;12.504;2023-06-19T19:45:09;7.53;;;6.72;;
37715;SDS011;23562;50.540;12.504;2023-06-19T19:47:34;7.30;;;6.60;;
37715;SDS011;23562;50.540;12.504;2023-06-19T19:50:00;8.68;;;6.80;;
37715;SDS011;23562;50.540;12.504;2023-06-19T19:52:25;9.60;;;6.70;;
37715;SDS011;23562;50.540;12.504;2023-06-19T19:54:50;7.40;;;6.20;;
37715;SDS011;23562;50.540;12.504;2023-06-19T19:57:16;8.27;;;7.38;;
37715;SDS011;23562;50.540;12.504;2023-06-19T19:59:41;7.85;;;7.03;;
37715;SDS011;23562;50.540;12.504;2023-06-19T20:02:06;9.23;;;7.38;;
37715;SDS011;23562;50.540;12.504;2023-06-19T20:04:35;8.32;;;7.07;;
37715;SDS011;23562;50.540;12.504;2023-06-19T20:07:00;8.32;;;7.50;;
37715;SDS011;23562;50.540;12.504;2023-06-19T20:09:26;9.13;;;6.68;;
37715;SDS011;23562;50.540;12.504;2023-06-19T20:11:51;9.38;;;7.13;;
37715;SDS011;23562;50.540;12.504;2023-06-19T20:14:16;14.40;;;8.55;;
37715;SDS011;23562;50.540;12.504;2023-06-19T20:16:42;9.30;;;7.72;;
37715;SDS011;23562;50.540;12.504;2023-06-19T20:19:07;8.68;;;6.65;;
37715;SDS011;23562;50.540;12.504;2023-06-19T20:21:32;9.43;;;6.68;;
37715;SDS011;23562;50.540;12.504;2023-06-19T20:23:57;7.95;;;6.93;;
37715;SDS011;23562;50.540;12.504;2023-06-19T20:26:22;8.00;;;6.85;;
37715;SDS011;23562;50.540;12.504;2023-06-19T20:28:47;10.17;;;6.70;;
37715;SDS011;23562;50.540;12.504;2023-06-19T20:31:13;7.88;;;6.85;;
37715;SDS011;23562;50.540;12.504;2023-06-19T20:33:38;7.50;;;6.75;;
37715;SDS011;23562;50.540;12.504;2023-06-19T20:36:04;7.10;;;6.40;;
37715;SDS011;23562;50.540;12.504;2023-06-19T20:38:29;8.55;;;7.25;;
37715;SDS011;23562;50.540;12.504;2023-06-19T20:40:54;8.77;;;7.13;;
37715;SDS011;23562;50.540;12.504;2023-06-19T20:43:19;7.18;;;6.38;;
37715;SDS011;23562;50.540;12.504;2023-06-19T20:45:44;8.18;;;6.70;;
37715;SDS011;23562;50.540;12.504;2023-06-19T20:48:10;7.20;;;6.50;;
37715;SDS011;23562;50.540;12.504;2023-06-19T20:50:35;7.53;;;6.25;;
37715;SDS011;23562;50.540;12.504;2023-06-19T20:53:00;8.50;;;7.10;;
37715;SDS011;23562;50.540;12.504;2023-06-19T20:55:25;9.60;;;7.10;;
37715;SDS011;23562;50.540;12.504;2023-06-19T20:57:50;7.22;;;6.53;;
37715;SDS011;23562;50.540;12.504;2023-06-19T21:00:16;7.97;;;7.17;;
37715;SDS011;23562;50.540;12.504;2023-06-19T21:02:41;10.45;;;7.25;;
37715;SDS011;23562;50.540;12.504;2023-06-19T21:05:07;10.13;;;7.03;;
37715;SDS011;23562;50.540;12.504;2023-06-19T21:07:33;8.07;;;7.28;;
37715;SDS011;23562;50.540;12.504;2023-06-19T21:09:58;7.17;;;6.47;;
37715;SDS011;23562;50.540;12.504;2023-06-19T21:12:23;7.80;;;7.05;;
37715;SDS011;23562;50.540;12.504;2023-06-19T21:14:49;9.00;;;7.22;;
37715;SDS011;23562;50.540;12.504;2023-06-19T21:17:14;7.68;;;6.88;;
37715;SDS011;23562;50.540;12.504;2023-06-19T21:19:39;9.00;;;6.90;;
37715;SDS011;23562;50.540;12.504;2023-06-19T21:22:04;8.10;;;6.78;;
37715;SDS011;23562;50.540;12.504;2023-06-19T21:24:29;7.88;;;7.07;;
37715;SDS011;23562;50.540;12.504;2023-06-19T21:26:55;8.68;;;6.35;;
37715;SDS011;23562;50.540;12.504;2023-06-19T21:29:20;7.40;;;6.70;;
37715;SDS011;23562;50.540;12.504;2023-06-19T21:31:45;9.00;;;7.13;;
37715;SDS011;23562;50.540;12.504;2023-06-19T21:34:10;7.93;;;7.03;;
37715;SDS011;23562;50.540;12.504;2023-06-19T21:36:35;8.13;;;7.32;;
37715;SDS011;23562;50.540;12.504;2023-06-19T21:39:00;7.45;;;6.70;;
37715;SDS011;23562;50.540;12.504;2023-06-19T21:41:25;9.90;;;7.70;;
37715;SDS011;23562;50.540;12.504;2023-06-19T21:43:50;8.63;;;7.10;;
37715;SDS011;23562;50.540;12.504;2023-06-19T21:46:16;8.23;;;7.00;;
37715;SDS011;23562;50.540;12.504;2023-06-19T21:48:41;8.17;;;7.37;;
37715;SDS011;23562;50.540;12.504;2023-06-19T21:51:06;7.90;;;7.07;;
37715;SDS011;23562;50.540;12.504;2023-06-19T21:53:31;7.90;;;7.10;;
37715;SDS011;23562;50.540;12.504;2023-06-19T21:55:56;8.65;;;7.43;;
37715;SDS011;23562;50.540;12.504;2023-06-19T21:58:23;9.05;;;7.32;;
37715;SDS011;23562;50.540;12.504;2023-06-19T22:00:48;8.52;;;7.57;;
37715;SDS011;23562;50.540;12.504;2023-06-19T22:03:13;12.23;;;7.27;;
37715;SDS011;23562;50.540;12.504;2023-06-19T22:05:38;9.37;;;7.70;;
37715;SDS011;23562;50.540;12.504;2023-06-19T22:08:03;9.90;;;7.40;;
37715;SDS011;23562;50.540;12.504;2023-06-19T22:10:29;9.27;;;7.70;;
37715;SDS011;23562;50.540;12.504;2023-06-19T22:12:54;10.38;;;7.80;;
37715;SDS011;23562;50.540;12.504;2023-06-19T22:15:19;8.68;;;7.80;;
37715;SDS011;23562;50.540;12.504;2023-06-19T22:17:44;8.30;;;7.47;;
37715;SDS011;23562;50.540;12.504;2023-06-19T22:20:18;10.02;;;7.32;;
37715;SDS011;23562;50.540;12.504;2023-06-19T22:22:47;8.35;;;7.47;;
37715;SDS011;23562;50.540;12.504;2023-06-19T22:25:12;8.10;;;7.30;;
37715;SDS011;23562;50.540;12.504;2023-06-19T22:27:38;10.52;;;8.07;;
37715;SDS011;23562;50.540;12.504;2023-06-19T22:30:03;10.07;;;7.38;;
37715;SDS011;23562;50.540;12.504;2023-06-19T22:32:28;9.02;;;7.43;;
37715;SDS011;23562;50.540;12.504;2023-06-19T22:34:53;8.80;;;7.60;;
37715;SDS011;23562;50.540;12.504;2023-06-19T22:37:18;9.15;;;7.82;;
37715;SDS011;23562;50.540;12.504;2023-06-19T22:39:43;8.57;;;7.68;;
37715;SDS011;23562;50.540;12.504;2023-06-19T22:42:09;8.57;;;7.18;;
37715;SDS011;23562;50.540;12.504;2023-06-19T22:44:34;8.60;;;7.28;;
37715;SDS011;23562;50.540;12.504;2023-06-19T22:46:59;9.32;;;7.18;;
37715;SDS011;23562;50.540;12.504;2023-06-19T22:49:24;8.27;;;7.47;;
37715;SDS011;23562;50.540;12.504;2023-06-19T22:51:54;8.48;;;7.57;;
37715;SDS011;23562;50.540;12.504;2023-06-19T22:54:19;9.03;;;8.13;;
37715;SDS011;23562;50.540;12.504;2023-06-19T22:56:44;8.32;;;7.50;;
37715;SDS011;23562;50.540;12.504;2023-06-19T22:59:10;8.98;;;8.07;;
37715;SDS011;23562;50.540;12.504;2023-06-19T23:01:36;8.10;;;7.30;;
37715;SDS011;23562;50.540;12.504;2023-06-19T23:04:01;8.45;;;7.65;;
37715;SDS011;23562;50.540;12.504;2023-06-19T23:06:28;10.27;;;8.27;;
37715;SDS011;23562;50.540;12.504;2023-06-19T23:08:53;9.27;;;7.93;;
37715;SDS011;23562;50.540;12.504;2023-06-19T23:11:18;8.93;;;8.00;;
37715;SDS011;23562;50.540;12.504;2023-06-19T23:13:43;8.80;;;7.90;;
37715;SDS011;23562;50.540;12.504;2023-06-19T23:16:08;9.27;;;8.00;;
37715;SDS011;23562;50.540;12.504;2023-06-19T23:18:37;8.82;;;7.88;;
37715;SDS011;23562;50.540;12.504;2023-06-19T23:21:02;9.02;;;8.18;;
37715;SDS011;23562;50.540;12.504;2023-06-19T23:23:27;8.98;;;8.02;;
37715;SDS011;23562;50.540;12.504;2023-06-19T23:25:55;8.95;;;8.05;;
37715;SDS011;23562;50.540;12.504;2023-06-19T23:28:20;11.40;;;7.70;;
37715;SDS011;23562;50.540;12.504;2023-06-19T23:30:45;9.15;;;8.20;;
37715;SDS011;23562;50.540;12.504;2023-06-19T23:33:10;9.67;;;8.20;;
37715;SDS011;23562;50.540;12.504;2023-06-19T23:35:36;8.87;;;7.97;;
37715;SDS011;23562;50.540;12.504;2023-06-19T23:38:01;9.20;;;8.30;;
37715;SDS011;23562;50.540;12.504;2023-06-19T23:40:26;8.57;;;7.73;;
37715;SDS011;23562;50.540;12.504;2023-06-19T23:42:54;9.38;;;8.48;;
37715;SDS011;23562;50.540;12.504;2023-06-19T23:45:19;9.40;;;8.07;;
37715;SDS011;23562;50.540;12.504;2023-06-19T23:47:45;10.95;;;8.70;;
37715;SDS011;23562;50.540;12.504;2023-06-19T23:50:10;9.13;;;7.77;;
37715;SDS011;23562;50.540;12.504;2023-06-19T23:52:35;10.35;;;8.50;;
37715;SDS011;23562;50.540;12.504;2023-06-19T23:55:00;9.13;;;8.17;;
37715;SDS011;23562;50.540;12.504;2023-06-19T23:57:25;8.88;;;7.97;;
37715;SDS011;23562;50.540;12.504;2023-06-19T23:59:51;9.20;;;8.23;;
